Aberdeen, Ohio
Current Conditions -  °F | °C
As of 11:55 AM on Sunday 23 Nov 2014 (Local Time) from KFGX Reporting Station
Overcast Overcast  
Wind Chill: 60°   Ceiling: 7000
Heat Index: 60°   Visibility: 10mi
Dew Point: 43°   Wind: 9mph
Humidity: 53%   Direction: 170°S
Pressure: 29.9"   Gusts: NA
Location:  38.66°N, 83.76°W
Report Text: KFGX 231655Z AUTO 17008KT 10SM SCT060 OVC070 16/06 A2990 RMK AO2 T01570062
Loading
Personal Weather Stations






























Interactive Weather Map New forecast layout! Learn more

10-Day Weather Forecast

Advertisements
Track Severe Weather on mobile